sensor_id;sensor_type;location;lat;lon;timestamp;P1;durP1;ratioP1;P2;durP2;ratioP2
59014;SDS011;44799;53.382;14.666;2023-05-23T17:29:23;5.78;;;3.13;;
59014;SDS011;44799;53.382;14.666;2023-05-23T17:31:51;5.22;;;3.38;;
59014;SDS011;44799;53.382;14.666;2023-05-23T17:34:16;4.57;;;3.65;;
59014;SDS011;44799;53.382;14.666;2023-05-23T17:36:42;5.95;;;2.72;;
59014;SDS011;44799;53.382;14.666;2023-05-23T17:39:08;3.13;;;2.83;;
59014;SDS011;44799;53.382;14.666;2023-05-23T17:41:34;5.85;;;3.97;;
59014;SDS011;44799;53.382;14.666;2023-05-23T17:44:00;8.70;;;3.33;;
59014;SDS011;44799;53.382;14.666;2023-05-23T17:46:26;8.63;;;4.32;;
59014;SDS011;44799;53.382;14.666;2023-05-23T17:48:52;9.10;;;3.47;;
59014;SDS011;44799;53.382;14.666;2023-05-23T17:51:18;4.93;;;3.85;;
59014;SDS011;44799;53.382;14.666;2023-05-23T17:53:44;4.50;;;2.90;;
59014;SDS011;44799;53.382;14.666;2023-05-23T17:56:10;3.75;;;3.10;;
59014;SDS011;44799;53.382;14.666;2023-05-23T17:58:36;3.00;;;2.25;;
59014;SDS011;44799;53.382;14.666;2023-05-23T18:01:03;4.57;;;3.30;;
59014;SDS011;44799;53.382;14.666;2023-05-23T18:03:29;5.00;;;3.63;;
59014;SDS011;44799;53.382;14.666;2023-05-23T18:05:55;3.85;;;2.80;;
59014;SDS011;44799;53.382;14.666;2023-05-23T18:08:21;6.80;;;3.53;;
59014;SDS011;44799;53.382;14.666;2023-05-23T18:10:47;3.60;;;3.10;;
59014;SDS011;44799;53.382;14.666;2023-05-23T18:13:13;4.03;;;2.13;;
59014;SDS011;44799;53.382;14.666;2023-05-23T18:15:39;5.68;;;3.55;;
59014;SDS011;44799;53.382;14.666;2023-05-23T18:18:05;4.63;;;3.35;;
59014;SDS011;44799;53.382;14.666;2023-05-23T18:20:32;4.97;;;3.60;;
59014;SDS011;44799;53.382;14.666;2023-05-23T18:22:58;3.38;;;2.97;;
59014;SDS011;44799;53.382;14.666;2023-05-23T18:25:25;3.55;;;2.65;;
59014;SDS011;44799;53.382;14.666;2023-05-23T18:27:56;5.05;;;3.78;;
59014;SDS011;44799;53.382;14.666;2023-05-23T18:30:23;4.95;;;3.88;;
59014;SDS011;44799;53.382;14.666;2023-05-23T18:32:50;4.80;;;3.88;;
59014;SDS011;44799;53.382;14.666;2023-05-23T18:35:17;3.30;;;2.22;;
59014;SDS011;44799;53.382;14.666;2023-05-23T18:37:43;6.70;;;2.97;;
59014;SDS011;44799;53.382;14.666;2023-05-23T18:40:09;12.55;;;7.05;;
59014;SDS011;44799;53.382;14.666;2023-05-23T18:42:35;5.90;;;3.70;;
59014;SDS011;44799;53.382;14.666;2023-05-23T18:45:01;8.15;;;4.15;;
59014;SDS011;44799;53.382;14.666;2023-05-23T18:47:27;6.47;;;3.65;;
59014;SDS011;44799;53.382;14.666;2023-05-23T18:49:53;4.78;;;3.55;;
59014;SDS011;44799;53.382;14.666;2023-05-23T18:52:19;3.85;;;3.30;;
59014;SDS011;44799;53.382;14.666;2023-05-23T18:54:45;2.67;;;2.33;;
59014;SDS011;44799;53.382;14.666;2023-05-23T18:57:13;4.13;;;2.10;;
59014;SDS011;44799;53.382;14.666;2023-05-23T18:59:38;3.63;;;2.65;;
59014;SDS011;44799;53.382;14.666;2023-05-23T19:02:05;3.88;;;1.50;;
59014;SDS011;44799;53.382;14.666;2023-05-23T19:04:31;2.05;;;1.67;;
59014;SDS011;44799;53.382;14.666;2023-05-23T19:06:57;3.50;;;1.55;;
59014;SDS011;44799;53.382;14.666;2023-05-23T19:09:23;1.85;;;1.15;;
59014;SDS011;44799;53.382;14.666;2023-05-23T19:11:49;2.78;;;1.45;;
59014;SDS011;44799;53.382;14.666;2023-05-23T19:14:14;1.65;;;1.00;;
59014;SDS011;44799;53.382;14.666;2023-05-23T19:16:41;2.17;;;1.48;;
59014;SDS011;44799;53.382;14.666;2023-05-23T19:19:06;0.60;;;0.60;;
59014;SDS011;44799;53.382;14.666;2023-05-23T19:21:32;1.13;;;1.02;;
59014;SDS011;44799;53.382;14.666;2023-05-23T19:23:58;1.15;;;1.00;;
59014;SDS011;44799;53.382;14.666;2023-05-23T19:26:24;0.70;;;0.70;;
59014;SDS011;44799;53.382;14.666;2023-05-23T19:28:50;0.80;;;0.80;;
59014;SDS011;44799;53.382;14.666;2023-05-23T19:31:17;0.70;;;0.40;;
59014;SDS011;44799;53.382;14.666;2023-05-23T19:33:43;1.38;;;0.63;;
59014;SDS011;44799;53.382;14.666;2023-05-23T19:36:09;0.22;;;0.20;;
59014;SDS011;44799;53.382;14.666;2023-05-23T19:38:34;0.35;;;0.32;;
59014;SDS011;44799;53.382;14.666;2023-05-23T19:41:00;0.25;;;0.25;;
59014;SDS011;44799;53.382;14.666;2023-05-23T19:43:27;0.20;;;0.20;;
59014;SDS011;44799;53.382;14.666;2023-05-23T19:45:52;0.25;;;0.25;;
59014;SDS011;44799;53.382;14.666;2023-05-23T19:48:18;0.40;;;0.40;;
59014;SDS011;44799;53.382;14.666;2023-05-23T19:50:44;0.40;;;0.30;;
59014;SDS011;44799;53.382;14.666;2023-05-23T19:53:11;0.10;;;0.10;;
59014;SDS011;44799;53.382;14.666;2023-05-23T19:55:37;0.25;;;0.25;;
59014;SDS011;44799;53.382;14.666;2023-05-23T19:58:04;2.42;;;1.55;;
59014;SDS011;44799;53.382;14.666;2023-05-23T20:00:30;0.52;;;0.40;;
59014;SDS011;44799;53.382;14.666;2023-05-23T20:02:56;0.47;;;0.40;;
59014;SDS011;44799;53.382;14.666;2023-05-23T20:05:22;0.60;;;0.40;;
59014;SDS011;44799;53.382;14.666;2023-05-23T20:07:48;0.57;;;0.40;;
59014;SDS011;44799;53.382;14.666;2023-05-23T20:10:14;1.05;;;0.43;;
59014;SDS011;44799;53.382;14.666;2023-05-23T20:12:40;0.60;;;0.60;;
59014;SDS011;44799;53.382;14.666;2023-05-23T20:15:06;0.38;;;0.38;;
59014;SDS011;44799;53.382;14.666;2023-05-23T20:17:33;0.68;;;0.50;;
59014;SDS011;44799;53.382;14.666;2023-05-23T20:19:59;0.35;;;0.30;;
59014;SDS011;44799;53.382;14.666;2023-05-23T20:22:26;0.70;;;0.60;;
59014;SDS011;44799;53.382;14.666;2023-05-23T20:24:52;0.50;;;0.40;;
59014;SDS011;44799;53.382;14.666;2023-05-23T20:27:18;1.05;;;0.57;;
59014;SDS011;44799;53.382;14.666;2023-05-23T20:29:44;0.75;;;0.70;;
59014;SDS011;44799;53.382;14.666;2023-05-23T20:32:10;2.15;;;0.80;;
59014;SDS011;44799;53.382;14.666;2023-05-23T20:34:36;3.13;;;1.17;;
59014;SDS011;44799;53.382;14.666;2023-05-23T20:37:02;1.67;;;1.20;;
59014;SDS011;44799;53.382;14.666;2023-05-23T20:39:29;3.67;;;1.02;;
59014;SDS011;44799;53.382;14.666;2023-05-23T20:41:55;2.80;;;1.58;;
59014;SDS011;44799;53.382;14.666;2023-05-23T20:44:21;1.88;;;1.25;;
59014;SDS011;44799;53.382;14.666;2023-05-23T20:46:47;3.38;;;1.98;;
59014;SDS011;44799;53.382;14.666;2023-05-23T20:49:15;1.75;;;1.17;;
59014;SDS011;44799;53.382;14.666;2023-05-23T20:51:41;4.20;;;1.58;;
59014;SDS011;44799;53.382;14.666;2023-05-23T20:54:07;1.70;;;1.25;;
59014;SDS011;44799;53.382;14.666;2023-05-23T20:56:33;3.15;;;1.80;;
59014;SDS011;44799;53.382;14.666;2023-05-23T20:59:00;4.88;;;2.45;;
59014;SDS011;44799;53.382;14.666;2023-05-23T21:01:26;4.82;;;2.20;;
59014;SDS011;44799;53.382;14.666;2023-05-23T21:03:52;3.58;;;1.83;;
59014;SDS011;44799;53.382;14.666;2023-05-23T21:06:19;2.85;;;2.05;;
59014;SDS011;44799;53.382;14.666;2023-05-23T21:08:45;5.75;;;2.30;;
59014;SDS011;44799;53.382;14.666;2023-05-23T21:11:11;2.22;;;1.70;;
59014;SDS011;44799;53.382;14.666;2023-05-23T21:13:37;7.78;;;2.50;;
59014;SDS011;44799;53.382;14.666;2023-05-23T21:16:03;4.95;;;2.65;;
59014;SDS011;44799;53.382;14.666;2023-05-23T21:18:30;2.70;;;1.88;;
59014;SDS011;44799;53.382;14.666;2023-05-23T21:20:56;2.20;;;1.98;;
59014;SDS011;44799;53.382;14.666;2023-05-23T21:23:22;4.45;;;1.85;;
59014;SDS011;44799;53.382;14.666;2023-05-23T21:25:48;6.15;;;2.03;;
59014;SDS011;44799;53.382;14.666;2023-05-23T21:28:14;3.83;;;1.95;;
59014;SDS011;44799;53.382;14.666;2023-05-23T21:30:40;2.45;;;1.05;;
59014;SDS011;44799;53.382;14.666;2023-05-23T21:33:05;4.80;;;2.50;;
59014;SDS011;44799;53.382;14.666;2023-05-23T21:35:31;6.90;;;1.92;;
59014;SDS011;44799;53.382;14.666;2023-05-23T21:37:58;3.95;;;2.20;;
59014;SDS011;44799;53.382;14.666;2023-05-23T21:40:23;3.90;;;1.50;;
59014;SDS011;44799;53.382;14.666;2023-05-23T21:42:50;6.93;;;2.58;;
59014;SDS011;44799;53.382;14.666;2023-05-23T21:45:17;5.10;;;2.28;;
59014;SDS011;44799;53.382;14.666;2023-05-23T21:47:42;1.40;;;1.25;;
59014;SDS011;44799;53.382;14.666;2023-05-23T21:50:08;4.70;;;1.80;;
59014;SDS011;44799;53.382;14.666;2023-05-23T21:52:34;5.70;;;1.85;;
59014;SDS011;44799;53.382;14.666;2023-05-23T21:55:01;6.47;;;1.70;;
59014;SDS011;44799;53.382;14.666;2023-05-23T21:57:27;6.80;;;2.63;;
59014;SDS011;44799;53.382;14.666;2023-05-23T21:59:52;8.90;;;2.15;;
59014;SDS011;44799;53.382;14.666;2023-05-23T22:02:18;3.38;;;1.58;;
59014;SDS011;44799;53.382;14.666;2023-05-23T22:04:45;1.65;;;1.10;;
59014;SDS011;44799;53.382;14.666;2023-05-23T22:07:11;6.13;;;1.88;;
59014;SDS011;44799;53.382;14.666;2023-05-23T22:09:37;4.15;;;1.70;;
59014;SDS011;44799;53.382;14.666;2023-05-23T22:12:03;7.50;;;3.05;;
59014;SDS011;44799;53.382;14.666;2023-05-23T22:14:29;4.10;;;2.10;;
59014;SDS011;44799;53.382;14.666;2023-05-23T22:16:55;8.13;;;1.95;;
59014;SDS011;44799;53.382;14.666;2023-05-23T22:19:23;5.15;;;2.30;;
59014;SDS011;44799;53.382;14.666;2023-05-23T22:21:50;2.42;;;1.33;;
59014;SDS011;44799;53.382;14.666;2023-05-23T22:24:16;3.72;;;1.60;;
59014;SDS011;44799;53.382;14.666;2023-05-23T22:26:42;2.25;;;1.20;;
59014;SDS011;44799;53.382;14.666;2023-05-23T22:29:08;5.13;;;1.88;;
59014;SDS011;44799;53.382;14.666;2023-05-23T22:31:34;3.13;;;1.83;;
59014;SDS011;44799;53.382;14.666;2023-05-23T22:34:00;2.35;;;2.15;;
59014;SDS011;44799;53.382;14.666;2023-05-23T22:36:26;11.70;;;2.35;;
59014;SDS011;44799;53.382;14.666;2023-05-23T22:38:52;4.32;;;1.73;;
59014;SDS011;44799;53.382;14.666;2023-05-23T22:41:17;5.03;;;2.22;;
59014;SDS011;44799;53.382;14.666;2023-05-23T22:43:43;1.73;;;0.98;;
59014;SDS011;44799;53.382;14.666;2023-05-23T22:46:09;6.32;;;1.63;;
59014;SDS011;44799;53.382;14.666;2023-05-23T22:48:35;9.40;;;1.50;;
59014;SDS011;44799;53.382;14.666;2023-05-23T22:51:01;5.05;;;1.52;;
59014;SDS011;44799;53.382;14.666;2023-05-23T22:53:28;10.10;;;3.30;;
59014;SDS011;44799;53.382;14.666;2023-05-23T22:55:54;3.95;;;1.83;;
59014;SDS011;44799;53.382;14.666;2023-05-23T22:58:20;4.13;;;1.55;;
59014;SDS011;44799;53.382;14.666;2023-05-23T23:00:46;2.70;;;1.42;;
59014;SDS011;44799;53.382;14.666;2023-05-23T23:03:12;4.45;;;1.70;;
59014;SDS011;44799;53.382;14.666;2023-05-23T23:05:39;5.30;;;1.75;;
59014;SDS011;44799;53.382;14.666;2023-05-23T23:08:05;4.72;;;1.20;;
59014;SDS011;44799;53.382;14.666;2023-05-23T23:10:31;2.92;;;1.08;;
59014;SDS011;44799;53.382;14.666;2023-05-23T23:12:57;9.77;;;1.35;;
59014;SDS011;44799;53.382;14.666;2023-05-23T23:15:22;8.30;;;1.65;;
59014;SDS011;44799;53.382;14.666;2023-05-23T23:17:48;4.80;;;1.50;;
59014;SDS011;44799;53.382;14.666;2023-05-23T23:20:14;4.07;;;1.63;;
59014;SDS011;44799;53.382;14.666;2023-05-23T23:22:41;4.13;;;1.23;;
59014;SDS011;44799;53.382;14.666;2023-05-23T23:25:07;3.22;;;1.13;;
59014;SDS011;44799;53.382;14.666;2023-05-23T23:27:36;8.80;;;2.38;;
59014;SDS011;44799;53.382;14.666;2023-05-23T23:30:03;3.97;;;1.80;;
59014;SDS011;44799;53.382;14.666;2023-05-23T23:32:32;5.03;;;2.45;;
59014;SDS011;44799;53.382;14.666;2023-05-23T23:34:58;5.22;;;2.08;;
59014;SDS011;44799;53.382;14.666;2023-05-23T23:37:24;3.78;;;1.50;;
59014;SDS011;44799;53.382;14.666;2023-05-23T23:39:50;7.43;;;1.15;;
59014;SDS011;44799;53.382;14.666;2023-05-23T23:42:16;3.80;;;1.60;;
59014;SDS011;44799;53.382;14.666;2023-05-23T23:44:42;1.27;;;0.73;;
59014;SDS011;44799;53.382;14.666;2023-05-23T23:47:08;6.63;;;1.42;;
59014;SDS011;44799;53.382;14.666;2023-05-23T23:49:34;6.13;;;1.90;;
59014;SDS011;44799;53.382;14.666;2023-05-23T23:52:00;3.85;;;1.52;;
59014;SDS011;44799;53.382;14.666;2023-05-23T23:54:26;6.43;;;1.67;;
59014;SDS011;44799;53.382;14.666;2023-05-23T23:56:52;5.55;;;1.52;;
59014;SDS011;44799;53.382;14.666;2023-05-23T23:59:18;5.45;;;1.90;;
